Time;durP1;ratioP1;P1;durP2;ratioP2;P2;SDS_P1;SDS_P2;PMS_P1;PMS_P2;Temp;Humidity;BMP_temperature;BMP_pressure;BME280_temperature;BME280_humidity;BME280_pressure;Samples;Min_cycle;Max_cycle;Signal;HPM_P1;HPM_P2
2022/12/23 00:01:21;;;;;;;66.97;32.40;;;;;;;;;;5061490;28;20157;-75
2022/12/23 00:03:48;;;;;;;67.40;33.85;;;;;;;;;;5067562;28;20048;-75
2022/12/23 00:06:15;;;;;;;72.28;34.88;;;;;;;;;;5058961;28;20055;-75
2022/12/23 00:08:41;;;;;;;70.63;32.38;;;;;;;;;;5062019;28;20045;-75
2022/12/23 00:11:10;;;;;;;71.18;34.47;;;;;;;;;;5068037;28;20041;-75
2022/12/23 00:16:21;;;;;;;70.20;34.20;;;;;;;;;;5062421;28;20048;-75
2022/12/23 00:18:47;;;;;;;69.65;35.15;;;;;;;;;;5061491;28;20083;-75
2022/12/23 00:21:14;;;;;;;79.60;33.95;;;;;;;;;;5065775;28;20048;-75
2022/12/23 00:23:41;;;;;;;76.28;34.75;;;;;;;;;;5064372;28;20032;-75
2022/12/23 00:26:07;;;;;;;80.03;34.83;;;;;;;;;;5064879;28;20049;-75
2022/12/23 00:28:36;;;;;;;83.28;34.20;;;;;;;;;;5069286;28;20040;-75
2022/12/23 00:31:04;;;;;;;76.57;35.25;;;;;;;;;;5070693;28;20044;-75
2022/12/23 00:33:32;;;;;;;77.63;35.28;;;;;;;;;;5067869;28;20044;-75
2022/12/23 00:35:59;;;;;;;87.60;36.55;;;;;;;;;;5064046;28;20447;-75
2022/12/23 00:43:56;;;;;;;72.07;33.08;;;;;;;;;;5068728;28;20515;-75
2022/12/23 00:46:22;;;;;;;76.25;34.25;;;;;;;;;;5068812;28;20041;-75
2022/12/23 00:51:32;;;;;;;76.07;33.72;;;;;;;;;;5070775;28;20259;-75
2022/12/23 00:53:58;;;;;;;71.78;33.83;;;;;;;;;;5066891;28;20051;-75
2022/12/23 00:56:24;;;;;;;71.22;33.13;;;;;;;;;;5066893;28;21115;-75
2022/12/23 00:58:50;;;;;;;140.32;33.05;;;;;;;;;;5066537;28;20101;-75
2022/12/23 01:06:46;;;;;;;96.70;30.67;;;;;;;;;;5071326;28;20049;-75
2022/12/23 01:09:12;;;;;;;72.13;31.73;;;;;;;;;;5069436;28;20559;-75
2022/12/23 01:11:38;;;;;;;82.05;32.30;;;;;;;;;;5067423;28;20040;-75
2022/12/23 01:14:04;;;;;;;74.75;32.40;;;;;;;;;;5070996;28;20071;-75
2022/12/23 01:16:31;;;;;;;74.70;32.13;;;;;;;;;;5068679;28;20052;-75
2022/12/23 01:18:58;;;;;;;75.68;33.15;;;;;;;;;;5069655;28;20041;-75
2022/12/23 01:21:24;;;;;;;78.65;30.90;;;;;;;;;;5069822;28;20072;-75
2022/12/23 01:23:50;;;;;;;68.65;31.40;;;;;;;;;;5070460;28;20071;-75
2022/12/23 01:26:16;;;;;;;76.07;28.38;;;;;;;;;;5069279;28;20457;-75
2022/12/23 01:28:42;;;;;;;71.10;28.73;;;;;;;;;;5067898;28;20056;-75
2022/12/23 01:31:09;;;;;;;80.63;28.65;;;;;;;;;;5066240;28;20128;-75
2022/12/23 01:33:35;;;;;;;61.90;28.90;;;;;;;;;;5068571;28;20045;-75
2022/12/23 01:36:02;;;;;;;73.70;27.85;;;;;;;;;;5068887;28;20045;-75
2022/12/23 01:38:29;;;;;;;64.60;27.20;;;;;;;;;;5068152;28;21009;-75
2022/12/23 01:40:56;;;;;;;67.10;28.27;;;;;;;;;;5060716;28;20468;-75
2022/12/23 01:43:22;;;;;;;61.97;29.35;;;;;;;;;;5068974;28;20404;-75
2022/12/23 01:45:48;;;;;;;82.55;30.30;;;;;;;;;;5067658;28;20071;-75
2022/12/23 01:48:20;;;;;;;67.72;30.40;;;;;;;;;;5061090;28;20074;-75
2022/12/23 01:50:48;;;;;;;71.22;29.15;;;;;;;;;;5065805;28;20041;-75
2022/12/23 01:53:21;;;;;;;72.18;30.65;;;;;;;;;;5067380;28;20083;-75
2022/12/23 01:55:47;;;;;;;75.55;31.52;;;;;;;;;;5068779;28;20492;-75
2022/12/23 01:58:20;;;;;;;60.25;29.95;;;;;;;;;;5062877;28;20052;-75
2022/12/23 02:03:43;;;;;;;61.95;29.85;;;;;;;;;;5063218;28;20060;-75
2022/12/23 02:11:59;;;;;;;60.38;27.55;;;;;;;;;;5068793;28;20046;-75
2022/12/23 02:17:25;;;;;;;61.15;26.95;;;;;;;;;;5063611;28;20143;-75
2022/12/23 02:20:09;;;;;;;65.00;29.40;;;;;;;;;;5065827;28;20166;-75
2022/12/23 02:22:54;;;;;;;109.63;36.00;;;;;;;;;;5062393;28;20040;-75
2022/12/23 02:25:39;;;;;;;92.45;39.90;;;;;;;;;;5061183;28;20051;-75
2022/12/23 02:28:11;;;;;;;98.72;42.45;;;;;;;;;;5056331;28;20131;-75
2022/12/23 02:30:45;;;;;;;186.27;46.50;;;;;;;;;;5063853;28;20392;-75
2022/12/23 02:33:16;;;;;;;99.22;43.53;;;;;;;;;;5057444;28;20059;-75
2022/12/23 02:35:57;;;;;;;138.60;42.67;;;;;;;;;;5067817;28;20516;-75
2022/12/23 02:38:27;;;;;;;93.65;40.40;;;;;;;;;;5065810;28;20127;-75
2022/12/23 02:41:08;;;;;;;83.03;35.38;;;;;;;;;;5065727;28;20064;-75
2022/12/23 02:43:49;;;;;;;91.45;33.35;;;;;;;;;;5067402;28;20064;-75
2022/12/23 02:46:21;;;;;;;126.85;35.95;;;;;;;;;;5065216;28;20536;-75
2022/12/23 02:48:47;;;;;;;95.85;31.60;;;;;;;;;;5061972;28;20064;-74
2022/12/23 02:51:14;;;;;;;107.15;28.38;;;;;;;;;;5063125;28;20079;-75
2022/12/23 02:53:42;;;;;;;60.50;26.52;;;;;;;;;;5068853;28;20087;-75
2022/12/23 02:56:10;;;;;;;143.35;27.88;;;;;;;;;;5064591;28;20056;-75
2022/12/23 02:58:45;;;;;;;67.00;24.63;;;;;;;;;;5067422;28;20044;-75
2022/12/23 03:01:12;;;;;;;97.25;23.77;;;;;;;;;;5062808;28;20068;-75
2022/12/23 03:03:39;;;;;;;53.45;20.50;;;;;;;;;;5066280;28;20101;-75
2022/12/23 03:06:14;;;;;;;53.35;22.60;;;;;;;;;;5065331;28;20476;-75
2022/12/23 03:08:42;;;;;;;117.05;25.10;;;;;;;;;;5064627;28;20099;-75
2022/12/23 03:11:13;;;;;;;83.38;25.83;;;;;;;;;;5060068;28;20083;-75
2022/12/23 03:13:42;;;;;;;61.78;24.00;;;;;;;;;;5062791;28;20059;-75
2022/12/23 03:16:21;;;;;;;68.00;25.50;;;;;;;;;;5063447;28;20059;-75
2022/12/23 03:19:05;;;;;;;193.10;30.38;;;;;;;;;;5067102;28;20040;-75
2022/12/23 03:21:40;;;;;;;71.35;26.10;;;;;;;;;;5067711;28;20072;-75
2022/12/23 03:24:25;;;;;;;54.50;24.48;;;;;;;;;;5063315;28;20044;-75
2022/12/23 03:26:56;;;;;;;66.15;24.50;;;;;;;;;;5061215;28;20051;-75
2022/12/23 03:29:36;;;;;;;46.13;21.45;;;;;;;;;;5066175;28;20424;-75
2022/12/23 03:32:03;;;;;;;111.85;25.67;;;;;;;;;;5066816;28;20442;-75
2022/12/23 03:34:31;;;;;;;210.55;29.45;;;;;;;;;;5064959;28;20056;-75
2022/12/23 03:37:00;;;;;;;107.05;28.13;;;;;;;;;;5058251;28;20063;-75
2022/12/23 03:39:29;;;;;;;60.75;26.05;;;;;;;;;;5066632;28;20048;-75
2022/12/23 03:41:59;;;;;;;102.93;30.63;;;;;;;;;;5063103;28;21209;-75
2022/12/23 03:44:30;;;;;;;59.28;26.52;;;;;;;;;;5063817;28;20717;-75
2022/12/23 03:47:02;;;;;;;88.43;28.45;;;;;;;;;;5064502;28;20507;-75
2022/12/23 03:49:31;;;;;;;56.67;27.48;;;;;;;;;;5065551;28;20765;-75
2022/12/23 03:52:06;;;;;;;60.25;26.63;;;;;;;;;;5064905;28;20068;-75
2022/12/23 03:54:39;;;;;;;88.85;26.70;;;;;;;;;;5066651;28;20128;-75
2022/12/23 03:57:07;;;;;;;52.97;25.80;;;;;;;;;;5070385;28;20044;-75
2022/12/23 03:59:42;;;;;;;57.85;27.27;;;;;;;;;;5066345;28;20044;-75
2022/12/23 04:02:11;;;;;;;108.22;29.33;;;;;;;;;;5068608;28;20472;-75
2022/12/23 04:04:37;;;;;;;59.95;28.77;;;;;;;;;;5074605;28;20041;-75
2022/12/23 04:07:22;;;;;;;103.47;29.92;;;;;;;;;;5071080;28;20074;-75
2022/12/23 04:09:49;;;;;;;81.47;28.95;;;;;;;;;;5069404;28;20388;-75
2022/12/23 04:12:15;;;;;;;94.10;31.58;;;;;;;;;;5071183;28;20044;-75
2022/12/23 04:14:46;;;;;;;78.45;29.08;;;;;;;;;;5071913;28;20044;-75
2022/12/23 04:17:12;;;;;;;82.20;31.50;;;;;;;;;;5067824;28;20048;-75
2022/12/23 04:19:38;;;;;;;64.90;30.10;;;;;;;;;;5071766;28;20511;-75
2022/12/23 04:22:04;;;;;;;62.67;27.92;;;;;;;;;;5072506;28;20068;-75
2022/12/23 04:24:30;;;;;;;58.33;27.92;;;;;;;;;;5073557;28;20080;-75
2022/12/23 04:26:56;;;;;;;52.78;26.05;;;;;;;;;;5072850;28;20085;-74
2022/12/23 04:29:22;;;;;;;55.58;25.67;;;;;;;;;;5071423;28;20048;-75
2022/12/23 04:31:48;;;;;;;55.33;26.05;;;;;;;;;;5069180;28;20046;-75
2022/12/23 04:34:14;;;;;;;55.63;25.40;;;;;;;;;;5069643;28;20384;-75
2022/12/23 04:36:40;;;;;;;54.42;25.45;;;;;;;;;;5073467;28;20098;-75
2022/12/23 04:39:06;;;;;;;59.67;27.02;;;;;;;;;;5072603;28;20060;-75
2022/12/23 04:41:32;;;;;;;54.17;25.65;;;;;;;;;;5072692;28;20564;-75
2022/12/23 04:43:59;;;;;;;69.00;25.83;;;;;;;;;;5073656;28;20461;-75
2022/12/23 04:46:25;;;;;;;52.80;25.30;;;;;;;;;;5071345;28;20049;-75
2022/12/23 04:48:52;;;;;;;48.65;23.58;;;;;;;;;;5067968;28;20068;-75
2022/12/23 04:51:17;;;;;;;52.22;23.63;;;;;;;;;;5071900;28;20101;-75
2022/12/23 04:53:43;;;;;;;62.08;26.88;;;;;;;;;;5072608;28;20040;-75
2022/12/23 04:56:10;;;;;;;59.85;27.00;;;;;;;;;;5072955;28;20091;-75
2022/12/23 04:58:36;;;;;;;123.13;29.10;;;;;;;;;;5069399;28;20054;-75
2022/12/23 05:01:06;;;;;;;68.03;30.00;;;;;;;;;;5073050;28;20119;-75
2022/12/23 05:03:32;;;;;;;75.57;31.60;;;;;;;;;;5074097;28;20504;-75
2022/12/23 05:05:58;;;;;;;78.38;30.50;;;;;;;;;;5070577;28;20139;-75
2022/12/23 05:08:24;;;;;;;120.68;30.52;;;;;;;;;;5065202;28;20040;-75
2022/12/23 05:10:51;;;;;;;54.22;25.02;;;;;;;;;;5065570;28;20040;-75
2022/12/23 05:13:17;;;;;;;60.05;23.20;;;;;;;;;;5068298;28;20036;-75
2022/12/23 05:15:43;;;;;;;61.92;21.30;;;;;;;;;;5062787;28;20062;-75
2022/12/23 05:18:10;;;;;;;48.00;19.95;;;;;;;;;;5067582;28;20075;-75
2022/12/23 05:20:36;;;;;;;39.30;18.85;;;;;;;;;;5066960;28;20093;-75
2022/12/23 05:23:02;;;;;;;39.97;18.70;;;;;;;;;;5065928;28;20046;-75
2022/12/23 05:25:28;;;;;;;34.40;16.13;;;;;;;;;;5067035;28;20091;-75
2022/12/23 05:27:54;;;;;;;46.72;15.07;;;;;;;;;;5067366;28;20056;-75
2022/12/23 05:30:20;;;;;;;27.75;13.68;;;;;;;;;;5063904;28;20048;-75
2022/12/23 05:32:46;;;;;;;52.42;13.00;;;;;;;;;;5070051;28;20090;-75
2022/12/23 05:35:12;;;;;;;31.02;11.63;;;;;;;;;;5066361;28;20044;-75
2022/12/23 05:37:38;;;;;;;27.38;10.77;;;;;;;;;;5070672;28;20117;-75
2022/12/23 05:40:04;;;;;;;20.65;10.05;;;;;;;;;;5063954;28;20044;-75
2022/12/23 05:42:30;;;;;;;21.80;11.65;;;;;;;;;;5065264;28;20575;-75
2022/12/23 05:44:56;;;;;;;25.50;12.20;;;;;;;;;;5065520;28;20123;-75
2022/12/23 05:47:22;;;;;;;24.17;10.98;;;;;;;;;;5066268;28;20131;-74
2022/12/23 05:49:48;;;;;;;24.85;12.18;;;;;;;;;;5069666;28;20128;-75
2022/12/23 05:52:14;;;;;;;23.33;12.30;;;;;;;;;;5062376;28;20193;-74
2022/12/23 05:54:40;;;;;;;37.55;11.93;;;;;;;;;;5069903;28;20040;-75
2022/12/23 05:57:06;;;;;;;32.17;11.32;;;;;;;;;;5066211;28;20087;-75
2022/12/23 05:59:32;;;;;;;21.15;10.93;;;;;;;;;;5070274;28;20630;-74
2022/12/23 06:01:58;;;;;;;30.90;10.07;;;;;;;;;;5066238;28;20127;-74
2022/12/23 06:04:24;;;;;;;40.60;11.02;;;;;;;;;;5068034;28;20044;-75
2022/12/23 06:06:50;;;;;;;22.10;9.07;;;;;;;;;;5068057;28;20049;-75
2022/12/23 06:09:16;;;;;;;31.73;10.10;;;;;;;;;;5067505;28;20040;-75
2022/12/23 06:11:42;;;;;;;27.67;10.63;;;;;;;;;;5063948;28;20057;-75
2022/12/23 06:14:08;;;;;;;29.65;12.70;;;;;;;;;;5079270;28;20531;-75
2022/12/23 06:16:34;;;;;;;26.70;11.90;;;;;;;;;;5068712;28;20050;-71
2022/12/23 06:19:00;;;;;;;27.25;10.82;;;;;;;;;;5069164;28;20048;-76
2022/12/23 06:21:26;;;;;;;21.83;10.98;;;;;;;;;;5065740;28;20572;-75
2022/12/23 06:23:52;;;;;;;30.95;11.77;;;;;;;;;;5071583;28;20101;-75
2022/12/23 06:26:18;;;;;;;24.48;12.02;;;;;;;;;;5068030;28;20216;-75
2022/12/23 06:28:44;;;;;;;23.40;12.30;;;;;;;;;;5070268;28;20177;-75
2022/12/23 06:31:10;;;;;;;32.45;13.35;;;;;;;;;;5063793;28;20565;-74
2022/12/23 06:33:36;;;;;;;22.00;11.73;;;;;;;;;;5063465;28;20036;-75
2022/12/23 06:36:02;;;;;;;19.23;11.10;;;;;;;;;;5068757;28;20052;-74
2022/12/23 06:38:28;;;;;;;36.33;12.98;;;;;;;;;;5066244;28;20049;-75
2022/12/23 06:40:54;;;;;;;27.88;13.02;;;;;;;;;;5066438;28;20443;-75
2022/12/23 06:43:20;;;;;;;28.08;12.63;;;;;;;;;;5071467;28;20546;-75
2022/12/23 06:45:49;;;;;;;28.83;13.43;;;;;;;;;;5065368;28;20392;-75
2022/12/23 06:48:16;;;;;;;26.10;13.93;;;;;;;;;;5062795;28;20044;-75
2022/12/23 06:50:42;;;;;;;36.42;16.80;;;;;;;;;;5067728;28;20045;-75
2022/12/23 06:53:09;;;;;;;34.00;15.80;;;;;;;;;;5057945;28;20052;-74
2022/12/23 06:55:35;;;;;;;31.52;15.85;;;;;;;;;;5072173;28;20040;-74
2022/12/23 06:58:01;;;;;;;35.72;17.15;;;;;;;;;;5065246;28;20492;-75
2022/12/23 07:00:27;;;;;;;37.35;17.48;;;;;;;;;;5067133;28;20044;-75
2022/12/23 07:02:53;;;;;;;38.03;17.25;;;;;;;;;;5070664;28;20048;-75
2022/12/23 07:05:19;;;;;;;45.15;18.67;;;;;;;;;;5068873;28;20044;-75
2022/12/23 07:07:45;;;;;;;40.92;18.55;;;;;;;;;;5058701;28;20403;-75
2022/12/23 07:10:11;;;;;;;43.65;18.73;;;;;;;;;;5069645;28;20571;-74
2022/12/23 07:12:38;;;;;;;44.45;18.15;;;;;;;;;;5066040;28;20052;-74
2022/12/23 07:15:04;;;;;;;44.20;19.75;;;;;;;;;;5066099;28;20101;-75
2022/12/23 07:17:31;;;;;;;44.42;18.70;;;;;;;;;;5056567;28;20067;-75
2022/12/23 07:19:57;;;;;;;44.92;19.23;;;;;;;;;;5066787;28;20043;-74
2022/12/23 07:22:23;;;;;;;37.13;16.77;;;;;;;;;;5066888;28;20109;-75
2022/12/23 07:24:49;;;;;;;41.78;17.20;;;;;;;;;;5066066;28;20123;-75
2022/12/23 07:27:15;;;;;;;38.88;17.20;;;;;;;;;;5064184;28;20033;-75
2022/12/23 07:29:42;;;;;;;43.05;16.65;;;;;;;;;;5065574;28;20496;-74
2022/12/23 07:32:08;;;;;;;38.50;17.25;;;;;;;;;;5066209;28;20056;-75
2022/12/23 07:34:34;;;;;;;35.22;15.32;;;;;;;;;;5063646;28;20409;-75
2022/12/23 07:37:00;;;;;;;40.83;16.67;;;;;;;;;;5062935;28;20106;-74
2022/12/23 07:39:27;;;;;;;34.05;15.60;;;;;;;;;;5067963;28;20127;-75
2022/12/23 07:41:53;;;;;;;36.33;15.23;;;;;;;;;;5064898;28;20481;-75
2022/12/23 07:44:19;;;;;;;37.95;16.05;;;;;;;;;;5062951;28;20096;-74
2022/12/23 07:46:45;;;;;;;32.25;15.05;;;;;;;;;;5068554;28;20048;-75
2022/12/23 07:49:11;;;;;;;38.67;15.80;;;;;;;;;;5064112;28;20454;-74
2022/12/23 07:51:37;;;;;;;34.92;15.13;;;;;;;;;;5068440;28;20558;-75
2022/12/23 07:54:03;;;;;;;35.45;15.48;;;;;;;;;;5071886;28;20040;-74
2022/12/23 07:56:29;;;;;;;32.85;14.60;;;;;;;;;;5063240;28;20127;-75
2022/12/23 07:58:55;;;;;;;36.92;14.82;;;;;;;;;;5061969;28;20123;-74
2022/12/23 08:01:21;;;;;;;34.08;15.48;;;;;;;;;;5064711;28;20037;-74
2022/12/23 08:03:47;;;;;;;32.80;14.18;;;;;;;;;;5063314;28;20068;-74
2022/12/23 08:06:14;;;;;;;38.28;16.60;;;;;;;;;;5061889;28;20061;-74
2022/12/23 08:08:41;;;;;;;31.63;14.02;;;;;;;;;;5061767;28;20464;-74
2022/12/23 08:11:08;;;;;;;34.08;14.77;;;;;;;;;;5062962;28;20139;-75
2022/12/23 08:13:35;;;;;;;32.78;14.27;;;;;;;;;;5067198;28;20403;-74
2022/12/23 08:16:02;;;;;;;36.10;13.93;;;;;;;;;;5067035;28;20048;-74
2022/12/23 08:18:32;;;;;;;31.23;15.88;;;;;;;;;;5066277;28;20135;-74
2022/12/23 08:20:59;;;;;;;38.40;15.40;;;;;;;;;;5068767;28;20041;-74
2022/12/23 08:23:26;;;;;;;34.50;15.25;;;;;;;;;;5067144;28;21743;-74
2022/12/23 08:25:59;;;;;;;33.95;15.25;;;;;;;;;;5067975;28;20075;-74
2022/12/23 08:28:25;;;;;;;34.10;16.13;;;;;;;;;;5066057;28;21084;-74
2022/12/23 08:30:51;;;;;;;36.45;15.68;;;;;;;;;;5067028;28;20399;-74
2022/12/23 08:33:17;;;;;;;40.55;16.25;;;;;;;;;;5064893;28;20072;-75
2022/12/23 08:35:43;;;;;;;46.30;17.65;;;;;;;;;;5065753;28;20569;-74
2022/12/23 08:38:09;;;;;;;52.78;19.02;;;;;;;;;;5062192;28;20084;-74
2022/12/23 08:40:35;;;;;;;59.25;18.55;;;;;;;;;;5065494;28;20392;-74
2022/12/23 08:43:01;;;;;;;48.00;17.38;;;;;;;;;;5061547;28;20049;-73
2022/12/23 08:45:27;;;;;;;36.33;15.32;;;;;;;;;;5071269;28;20037;-74
2022/12/23 08:47:53;;;;;;;32.20;14.43;;;;;;;;;;5067616;28;20503;-73
2022/12/23 08:50:19;;;;;;;32.90;14.82;;;;;;;;;;5070455;28;20049;-73
2022/12/23 08:52:45;;;;;;;34.65;13.25;;;;;;;;;;5068918;28;20051;-74
2022/12/23 08:55:11;;;;;;;35.60;13.05;;;;;;;;;;5071677;28;20167;-74
2022/12/23 08:57:37;;;;;;;38.88;14.38;;;;;;;;;;5069207;28;20679;-74
2022/12/23 09:00:04;;;;;;;35.63;13.15;;;;;;;;;;5069479;28;20052;-74
2022/12/23 09:02:30;;;;;;;32.53;14.50;;;;;;;;;;5067273;28;20056;-74
2022/12/23 09:04:59;;;;;;;30.35;13.90;;;;;;;;;;5071213;28;20076;-74
2022/12/23 09:07:25;;;;;;;33.55;13.77;;;;;;;;;;5069133;28;20605;-74
2022/12/23 09:09:51;;;;;;;29.77;14.23;;;;;;;;;;5067665;28;20037;-74
2022/12/23 09:12:17;;;;;;;28.80;15.55;;;;;;;;;;5067945;28;20052;-74
2022/12/23 09:14:46;;;;;;;35.70;15.32;;;;;;;;;;5067332;28;20123;-74
2022/12/23 09:17:12;;;;;;;26.73;12.65;;;;;;;;;;5066732;28;20114;-74
2022/12/23 09:19:38;;;;;;;27.27;12.43;;;;;;;;;;5070927;28;20043;-74
2022/12/23 09:22:04;;;;;;;29.35;13.07;;;;;;;;;;5067757;28;20036;-74
2022/12/23 09:24:31;;;;;;;29.42;12.40;;;;;;;;;;5063767;28;20741;-74
2022/12/23 09:26:57;;;;;;;31.90;17.85;;;;;;;;;;5071150;28;20040;-74
2022/12/23 09:29:23;;;;;;;24.50;11.55;;;;;;;;;;5068692;28;20054;-73
2022/12/23 09:31:49;;;;;;;26.73;10.30;;;;;;;;;;5069778;28;20044;-73
2022/12/23 09:34:15;;;;;;;21.98;10.07;;;;;;;;;;5065260;28;20049;-74
2022/12/23 09:36:41;;;;;;;26.90;10.07;;;;;;;;;;5067598;28;20056;-73
2022/12/23 09:39:07;;;;;;;20.52;9.57;;;;;;;;;;5068552;28;20048;-73
2022/12/23 09:41:47;;;;;;;20.83;9.00;;;;;;;;;;5068349;28;20450;-72
2022/12/23 09:44:13;;;;;;;19.17;8.50;;;;;;;;;;5062526;28;20489;-72
2022/12/23 09:46:44;;;;;;;24.23;9.27;;;;;;;;;;5069211;28;20036;-73
2022/12/23 09:49:12;;;;;;;22.88;9.82;;;;;;;;;;5069094;28;20091;-73
2022/12/23 09:51:38;;;;;;;17.27;8.50;;;;;;;;;;5069844;28;20044;-73
2022/12/23 09:54:15;;;;;;;15.90;7.75;;;;;;;;;;5060995;28;20480;-73
2022/12/23 09:56:52;;;;;;;14.35;7.25;;;;;;;;;;5070805;28;20040;-73
2022/12/23 09:59:21;;;;;;;13.93;6.55;;;;;;;;;;5068743;28;20051;-73
2022/12/23 10:02:14;;;;;;;10.25;6.10;;;;;;;;;;5069619;28;20371;-73
2022/12/23 10:05:03;;;;;;;10.38;5.80;;;;;;;;;;5065962;28;20551;-73
2022/12/23 10:07:32;;;;;;;14.38;6.72;;;;;;;;;;5061051;28;20052;-73
2022/12/23 10:10:05;;;;;;;11.57;6.15;;;;;;;;;;5063402;28;20041;-73
2022/12/23 10:12:39;;;;;;;11.70;5.50;;;;;;;;;;5064932;28;20491;-73
2022/12/23 10:15:26;;;;;;;13.20;5.65;;;;;;;;;;5065342;28;20400;-73
2022/12/23 10:17:54;;;;;;;10.35;5.65;;;;;;;;;;5057571;28;20084;-72
2022/12/23 10:20:31;;;;;;;12.10;6.47;;;;;;;;;;5066446;28;20126;-72
2022/12/23 10:22:58;;;;;;;9.18;5.63;;;;;;;;;;5065671;28;20561;-72
2022/12/23 10:25:32;;;;;;;10.30;5.20;;;;;;;;;;5064589;28;20036;-73
2022/12/23 10:27:58;;;;;;;12.30;5.70;;;;;;;;;;5065951;28;20040;-72
2022/12/23 10:30:26;;;;;;;11.27;5.47;;;;;;;;;;5066359;28;20045;-73
2022/12/23 10:32:55;;;;;;;10.98;5.53;;;;;;;;;;5066029;28;20051;-72
2022/12/23 10:35:40;;;;;;;10.63;4.53;;;;;;;;;;5066660;28;20149;-72
2022/12/23 10:38:09;;;;;;;9.95;5.00;;;;;;;;;;5062780;28;20492;-73
2022/12/23 10:40:52;;;;;;;8.50;4.57;;;;;;;;;;5065346;28;20043;-73
2022/12/23 10:43:24;;;;;;;8.38;4.55;;;;;;;;;;5067291;28;20079;-72
2022/12/23 10:46:09;;;;;;;8.63;4.07;;;;;;;;;;5061782;28;20044;-72
2022/12/23 10:48:46;;;;;;;7.22;4.38;;;;;;;;;;5065951;28;20048;-73
2022/12/23 10:51:24;;;;;;;10.50;5.25;;;;;;;;;;5066160;28;20083;-72
2022/12/23 10:53:56;;;;;;;9.38;5.32;;;;;;;;;;5061657;28;20135;-73
2022/12/23 10:56:25;;;;;;;9.85;5.32;;;;;;;;;;5065225;28;20045;-73
2022/12/23 10:58:54;;;;;;;14.27;6.43;;;;;;;;;;5067681;28;20039;-73
2022/12/23 11:01:21;;;;;;;11.25;6.60;;;;;;;;;;5064480;28;20040;-73
2022/12/23 11:03:54;;;;;;;11.15;7.03;;;;;;;;;;5069974;28;20381;-73
2022/12/23 11:06:20;;;;;;;14.82;7.13;;;;;;;;;;5066694;28;20044;-72
2022/12/23 11:08:47;;;;;;;14.15;7.90;;;;;;;;;;5066949;28;20048;-72
2022/12/23 11:11:13;;;;;;;17.77;8.10;;;;;;;;;;5066265;28;20400;-72
2022/12/23 11:13:44;;;;;;;12.52;7.53;;;;;;;;;;5068260;28;20040;-72
2022/12/23 11:16:18;;;;;;;15.90;10.80;;;;;;;;;;5063470;28;20040;-72
2022/12/23 11:18:53;;;;;;;14.05;8.98;;;;;;;;;;5063441;28;20056;-72
2022/12/23 11:21:20;;;;;;;22.45;13.65;;;;;;;;;;5064794;28;20051;-74
2022/12/23 11:23:46;;;;;;;20.77;12.15;;;;;;;;;;5065797;28;20047;-74
2022/12/23 11:26:19;;;;;;;16.83;10.95;;;;;;;;;;5065600;28;20140;-73
2022/12/23 11:28:58;;;;;;;14.10;8.43;;;;;;;;;;5065966;28;20410;-72
2022/12/23 11:31:32;;;;;;;19.17;11.75;;;;;;;;;;5064285;28;20047;-74
2022/12/23 11:33:58;;;;;;;;;;;;;;;;;;5057715;28;20424;-74
2022/12/23 11:36:26;;;;;;;17.20;9.25;;;;;;;;;;5062144;28;20191;-74
2022/12/23 11:38:52;;;;;;;16.58;9.60;;;;;;;;;;5064959;28;20599;-74
2022/12/23 11:41:23;;;;;;;17.63;10.48;;;;;;;;;;5060521;28;20059;-74
2022/12/23 11:44:00;;;;;;;16.70;10.57;;;;;;;;;;5062774;28;20084;-74
2022/12/23 11:46:31;;;;;;;16.10;10.73;;;;;;;;;;5061315;28;20056;-74
2022/12/23 11:49:12;;;;;;;14.57;10.35;;;;;;;;;;5063427;28;20041;-73
2022/12/23 11:51:38;;;;;;;17.55;10.93;;;;;;;;;;5066803;28;20055;-73
2022/12/23 11:54:04;;;;;;;17.17;9.57;;;;;;;;;;5068531;28;20044;-73
2022/12/23 11:56:35;;;;;;;18.27;10.82;;;;;;;;;;5066621;28;20040;-74
2022/12/23 11:59:09;;;;;;;16.98;10.65;;;;;;;;;;5067789;28;20052;-73
2022/12/23 12:01:36;;;;;;;25.85;14.05;;;;;;;;;;5063947;28;20036;-74
2022/12/23 12:04:11;;;;;;;17.08;10.95;;;;;;;;;;5063760;28;20103;-73
2022/12/23 12:06:42;;;;;;;14.15;10.23;;;;;;;;;;5066751;28;20046;-75
2022/12/23 12:09:11;;;;;;;17.80;10.10;;;;;;;;;;5062415;28;20477;-73
2022/12/23 12:11:39;;;;;;;17.35;10.65;;;;;;;;;;5066727;28;20048;-73
2022/12/23 12:14:06;;;;;;;16.50;10.25;;;;;;;;;;5067330;28;20102;-74
2022/12/23 12:16:38;;;;;;;15.40;10.60;;;;;;;;;;5064158;28;20051;-73
2022/12/23 12:19:07;;;;;;;15.07;10.57;;;;;;;;;;5071408;28;20090;-73
2022/12/23 12:21:36;;;;;;;15.05;9.85;;;;;;;;;;5071935;28;20101;-74
2022/12/23 12:24:16;;;;;;;15.93;10.45;;;;;;;;;;5072368;28;20404;-74
2022/12/23 12:26:43;;;;;;;16.83;9.45;;;;;;;;;;5075630;28;20439;-73
2022/12/23 12:29:28;;;;;;;17.25;10.45;;;;;;;;;;5070106;28;20099;-72
2022/12/23 12:31:58;;;;;;;20.40;10.32;;;;;;;;;;5069275;28;20052;-73
2022/12/23 12:34:41;;;;;;;16.20;9.77;;;;;;;;;;5070493;28;20044;-74
2022/12/23 12:37:08;;;;;;;17.88;9.88;;;;;;;;;;5070023;28;20058;-74
2022/12/23 12:39:41;;;;;;;18.08;9.63;;;;;;;;;;5069430;28;20395;-74
2022/12/23 12:42:20;;;;;;;21.10;10.80;;;;;;;;;;5071289;28;20451;-74
2022/12/23 12:45:09;;;;;;;15.77;9.10;;;;;;;;;;5070050;28;20045;-74
2022/12/23 12:47:55;;;;;;;19.02;9.82;;;;;;;;;;5069476;28;20126;-74
2022/12/23 12:50:26;;;;;;;17.70;9.13;;;;;;;;;;5069117;28;20097;-74
2022/12/23 12:52:54;;;;;;;17.15;9.88;;;;;;;;;;5070216;28;20436;-74
2022/12/23 12:55:25;;;;;;;17.05;9.82;;;;;;;;;;5071566;28;20048;-73
2022/12/23 12:57:51;;;;;;;18.95;9.05;;;;;;;;;;5070967;28;20040;-73
2022/12/23 13:00:21;;;;;;;18.02;10.55;;;;;;;;;;5069590;28;20519;-73
2022/12/23 13:02:58;;;;;;;16.63;10.27;;;;;;;;;;5068841;28;20072;-73
2022/12/23 13:05:36;;;;;;;18.88;9.30;;;;;;;;;;5069977;28;20456;-73
2022/12/23 13:08:08;;;;;;;15.77;9.35;;;;;;;;;;5069667;28;20036;-74
2022/12/23 13:10:53;;;;;;;21.02;10.60;;;;;;;;;;5068512;28;20101;-74
2022/12/23 13:13:34;;;;;;;18.88;9.13;;;;;;;;;;5070079;28;20488;-74
2022/12/23 13:16:12;;;;;;;22.50;9.73;;;;;;;;;;5064089;28;20075;-73
2022/12/23 13:18:56;;;;;;;23.35;10.50;;;;;;;;;;5068942;28;20098;-74
2022/12/23 13:21:40;;;;;;;18.10;10.10;;;;;;;;;;5068654;28;20087;-74
2022/12/23 13:24:06;;;;;;;18.50;10.07;;;;;;;;;;5066472;28;20495;-73
2022/12/23 13:26:50;;;;;;;19.88;9.88;;;;;;;;;;5071588;28;20507;-73
2022/12/23 13:29:35;;;;;;;21.67;10.77;;;;;;;;;;5058945;28;20102;-74
2022/12/23 13:32:20;;;;;;;18.80;11.50;;;;;;;;;;5069801;28;20056;-73
2022/12/23 13:34:53;;;;;;;18.13;9.73;;;;;;;;;;5063666;28;20124;-73
2022/12/23 13:37:25;;;;;;;17.67;10.25;;;;;;;;;;5058049;28;20045;-73
2022/12/23 13:40:06;;;;;;;21.48;10.82;;;;;;;;;;5059822;28;20454;-74
2022/12/23 13:42:38;;;;;;;26.85;10.35;;;;;;;;;;5073507;28;20051;-74
2022/12/23 13:45:05;;;;;;;16.13;8.98;;;;;;;;;;5064600;28;20668;-74
2022/12/23 13:47:44;;;;;;;19.70;9.30;;;;;;;;;;5067785;28;20048;-75
2022/12/23 13:50:12;;;;;;;16.75;9.10;;;;;;;;;;5072792;28;20064;-74
2022/12/23 13:52:42;;;;;;;14.85;8.98;;;;;;;;;;5067875;28;20047;-74
2022/12/23 13:55:27;;;;;;;15.25;7.85;;;;;;;;;;5068235;28;20090;-74
2022/12/23 13:58:00;;;;;;;13.93;8.50;;;;;;;;;;5070369;28;20072;-74
2022/12/23 14:00:31;;;;;;;15.93;9.38;;;;;;;;;;5068112;28;20497;-74
2022/12/23 14:02:58;;;;;;;17.65;9.15;;;;;;;;;;5060010;28;20079;-74
2022/12/23 14:05:39;;;;;;;14.15;8.10;;;;;;;;;;5056488;28;20143;-74
2022/12/23 14:08:05;;;;;;;15.73;8.63;;;;;;;;;;5052982;28;20053;-74
2022/12/23 14:10:32;;;;;;;18.98;8.95;;;;;;;;;;5053964;28;20050;-74
2022/12/23 14:13:03;;;;;;;19.67;10.48;;;;;;;;;;5071378;28;20052;-74
2022/12/23 14:15:29;;;;;;;15.52;8.93;;;;;;;;;;5069190;28;20040;-74
2022/12/23 14:18:14;;;;;;;17.20;9.55;;;;;;;;;;5070097;28;20044;-73
2022/12/23 14:20:59;;;;;;;17.38;10.32;;;;;;;;;;5066604;28;20105;-74
2022/12/23 14:23:43;;;;;;;18.13;10.23;;;;;;;;;;5071154;28;20044;-73
2022/12/23 14:26:31;;;;;;;19.55;10.18;;;;;;;;;;5069252;28;20465;-74
2022/12/23 14:29:06;;;;;;;19.05;9.55;;;;;;;;;;5069470;28;20553;-73
2022/12/23 14:31:43;;;;;;;18.90;10.40;;;;;;;;;;5069077;28;20056;-73
2022/12/23 14:34:19;;;;;;;17.77;10.55;;;;;;;;;;5071224;28;20052;-72
2022/12/23 14:37:03;;;;;;;19.67;10.30;;;;;;;;;;5071593;28;20140;-73
2022/12/23 14:39:31;;;;;;;17.75;9.18;;;;;;;;;;5062850;28;20075;-74
2022/12/23 14:42:00;;;;;;;16.48;9.80;;;;;;;;;;5062457;28;20041;-73
2022/12/23 14:44:35;;;;;;;16.52;9.68;;;;;;;;;;5064269;28;20527;-72
2022/12/23 14:47:01;;;;;;;15.25;8.98;;;;;;;;;;5066496;28;20442;-72
2022/12/23 14:49:36;;;;;;;16.08;8.93;;;;;;;;;;5060484;28;20102;-72
2022/12/23 14:52:21;;;;;;;16.67;8.93;;;;;;;;;;5065434;28;20046;-72
2022/12/23 14:54:47;;;;;;;15.35;9.13;;;;;;;;;;5064680;28;20041;-73
2022/12/23 14:57:18;;;;;;;13.95;9.30;;;;;;;;;;5058503;28;20766;-73
2022/12/23 14:59:50;;;;;;;17.90;9.90;;;;;;;;;;5067091;28;20513;-72
2022/12/23 15:02:30;;;;;;;19.00;9.60;;;;;;;;;;5056329;28;20503;-73
2022/12/23 15:04:57;;;;;;;15.77;9.25;;;;;;;;;;5068561;28;20047;-73